createdAt,value
2018-03-01T00:00:43.893Z,0
2018-03-01T00:01:53.853Z,0
2018-03-01T00:03:03.538Z,0
2018-03-01T00:04:13.230Z,0
2018-03-01T00:05:23.026Z,0
2018-03-01T00:06:32.997Z,0
2018-03-01T00:07:43.203Z,0
2018-03-01T00:08:53.160Z,0
2018-03-01T00:10:03.110Z,0
2018-03-01T00:11:13.067Z,0
2018-03-01T00:12:22.755Z,0
2018-03-01T00:13:32.439Z,0
2018-03-01T00:14:41.862Z,0
2018-03-01T00:15:51.539Z,0
2018-03-01T00:17:01.223Z,0
2018-03-01T00:18:11.160Z,0
2018-03-01T00:19:20.853Z,0
2018-03-01T00:20:30.803Z,0
2018-03-01T00:21:40.756Z,0
2018-03-01T00:22:50.479Z,0
2018-03-01T00:24:00.188Z,0
2018-03-01T00:25:09.636Z,0
2018-03-01T00:26:19.591Z,0
2018-03-01T00:27:29.574Z,0
2018-03-01T00:28:39.516Z,0
2018-03-01T00:29:49.463Z,0
2018-03-01T00:30:59.416Z,0
2018-03-01T00:32:09.366Z,0
2018-03-01T00:33:18.793Z,0
2018-03-01T00:34:28.752Z,0
2018-03-01T00:35:38.454Z,0
2018-03-01T00:36:47.887Z,0
2018-03-01T00:37:57.576Z,0
2018-03-01T00:39:07.777Z,0
2018-03-01T00:40:17.715Z,0
2018-03-01T00:41:27.400Z,0
2018-03-01T00:42:37.095Z,0
2018-03-01T00:43:47.043Z,0
2018-03-01T00:44:56.745Z,0
2018-03-01T00:46:06.692Z,0
2018-03-01T00:47:16.643Z,0
2018-03-01T00:48:26.339Z,0
2018-03-01T00:49:36.045Z,0
2018-03-01T00:50:45.992Z,0
2018-03-01T00:51:56.191Z,0
2018-03-01T00:53:05.623Z,0
2018-03-01T00:54:15.575Z,0
2018-03-01T00:55:25.533Z,0
2018-03-01T00:56:35.490Z,0
2018-03-01T00:57:45.489Z,0
2018-03-01T00:58:55.445Z,0
2018-03-01T01:00:05.413Z,0
2018-03-01T01:01:15.364Z,0
2018-03-01T01:02:25.051Z,0
2018-03-01T01:03:35.006Z,0
2018-03-01T01:04:44.969Z,0
2018-03-01T01:05:54.966Z,0
2018-03-01T01:07:04.666Z,0
2018-03-01T01:08:14.098Z,0
2018-03-01T01:09:23.263Z,0
2018-03-01T01:10:33.264Z,0
2018-03-01T01:11:43.219Z,0
2018-03-01T01:12:52.912Z,0
2018-03-01T01:14:02.606Z,0
2018-03-01T01:15:12.039Z,0
2018-03-01T01:16:21.749Z,0
2018-03-01T01:17:31.650Z,0
2018-03-01T01:18:41.331Z,0
2018-03-01T01:19:51.278Z,0
2018-03-01T01:21:00.981Z,0
2018-03-01T01:22:10.157Z,0
2018-03-01T01:23:19.861Z,0
2018-03-01T01:24:29.601Z,0
2018-03-01T01:25:39.025Z,0
2018-03-01T01:26:48.718Z,0
2018-03-01T01:27:58.412Z,0
2018-03-01T01:29:08.364Z,0
2018-03-01T01:30:17.528Z,0
2018-03-01T01:31:27.472Z,0
2018-03-01T01:32:36.636Z,0
2018-03-01T01:33:46.326Z,0
2018-03-01T01:34:56.308Z,0
2018-03-01T01:36:06.258Z,0
2018-03-01T01:37:15.696Z,0
2018-03-01T01:38:25.381Z,0
2018-03-01T01:39:35.337Z,0
2018-03-01T01:40:45.299Z,0
2018-03-01T01:41:54.982Z,0
2018-03-01T01:43:04.676Z,0
2018-03-01T01:44:14.633Z,0
2018-03-01T01:45:24.585Z,0
2018-03-01T01:46:34.541Z,0
2018-03-01T01:47:43.959Z,0
2018-03-01T01:48:53.655Z,0
2018-03-01T01:50:03.346Z,0
2018-03-01T01:51:13.035Z,0
2018-03-01T01:52:22.994Z,0
2018-03-01T01:53:32.952Z,0
2018-03-01T01:54:42.910Z,0
2018-03-01T01:55:52.335Z,0
2018-03-01T01:57:02.288Z,0
2018-03-01T01:58:11.714Z,0
2018-03-01T01:59:21.655Z,0
2018-03-01T02:00:31.086Z,0
2018-03-01T02:01:40.254Z,0
2018-03-01T02:02:50.201Z,0
2018-03-01T02:04:00.145Z,0
2018-03-01T02:05:09.835Z,0
2018-03-01T02:06:19.779Z,0
2018-03-01T02:07:29.483Z,0
2018-03-01T02:08:39.182Z,0
2018-03-01T02:09:49.128Z,0
2018-03-01T02:10:58.822Z,0
2018-03-01T02:12:08.763Z,0
2018-03-01T02:13:18.443Z,0
2018-03-01T02:14:28.140Z,0
2018-03-01T02:15:38.084Z,0
2018-03-01T02:16:47.788Z,0
2018-03-01T02:17:57.743Z,0
2018-03-01T02:19:07.432Z,0
2018-03-01T02:20:16.860Z,0
2018-03-01T02:21:26.541Z,0
2018-03-01T02:22:36.235Z,0
2018-03-01T02:23:45.933Z,0
2018-03-01T02:24:55.887Z,0
2018-03-01T02:26:05.563Z,0
2018-03-01T02:27:15.003Z,0
2018-03-01T02:28:24.957Z,0
2018-03-01T02:29:34.907Z,0
2018-03-01T02:30:44.341Z,0
2018-03-01T02:31:54.290Z,0
2018-03-01T02:33:03.733Z,0
2018-03-01T02:34:13.687Z,0
2018-03-01T02:35:23.676Z,0
2018-03-01T02:36:33.632Z,0
2018-03-01T02:37:43.334Z,0
2018-03-01T02:38:53.342Z,0
2018-03-01T02:40:03.040Z,0
2018-03-01T02:41:12.734Z,0
2018-03-01T02:42:22.435Z,0
2018-03-01T02:43:32.137Z,0
2018-03-01T02:44:42.099Z,0
2018-03-01T02:45:52.067Z,0
2018-03-01T02:47:01.239Z,0
2018-03-01T02:48:10.937Z,0
2018-03-01T02:49:20.628Z,0
2018-03-01T02:50:30.057Z,0
2018-03-01T02:51:40.008Z,0
2018-03-01T02:52:49.703Z,0
2018-03-01T02:53:59.401Z,0
2018-03-01T02:55:08.844Z,0
2018-03-01T02:56:18.526Z,0
2018-03-01T02:57:28.483Z,0
2018-03-01T02:58:38.213Z,0
2018-03-01T02:59:48.167Z,0
2018-03-01T03:00:58.128Z,0
2018-03-01T03:02:07.803Z,0
2018-03-01T03:03:17.767Z,0
2018-03-01T03:04:27.720Z,0
2018-03-01T03:05:37.405Z,0
2018-03-01T03:06:47.101Z,0
2018-03-01T03:07:56.525Z,0
2018-03-01T03:09:06.222Z,0
2018-03-01T03:10:16.179Z,0
2018-03-01T03:11:25.872Z,0
2018-03-01T03:12:35.296Z,0
2018-03-01T03:13:44.988Z,0
2018-03-01T03:14:54.674Z,0
2018-03-01T03:16:04.626Z,0
2018-03-01T03:17:13.793Z,0
2018-03-01T03:18:24.000Z,0
2018-03-01T03:19:33.687Z,0
2018-03-01T03:20:43.389Z,0
2018-03-01T03:21:53.342Z,0
2018-03-01T03:23:03.032Z,0
2018-03-01T03:24:12.733Z,0
2018-03-01T03:25:22.427Z,0
2018-03-01T03:26:32.378Z,0
2018-03-01T03:27:42.343Z,0
2018-03-01T03:28:52.034Z,0
2018-03-01T03:30:01.720Z,0
2018-03-01T03:31:11.680Z,0
2018-03-01T03:32:21.636Z,0
2018-03-01T03:33:31.327Z,0
2018-03-01T03:34:41.033Z,0
2018-03-01T03:35:51.002Z,0
2018-03-01T03:37:00.963Z,0
2018-03-01T03:38:10.660Z,0
2018-03-01T03:39:20.610Z,0
2018-03-01T03:40:30.559Z,0
2018-03-01T03:41:40.247Z,0
2018-03-01T03:42:49.932Z,0
2018-03-01T03:43:59.884Z,0
2018-03-01T03:45:09.835Z,0
2018-03-01T03:46:19.773Z,0
2018-03-01T03:47:29.463Z,0
2018-03-01T03:48:39.407Z,0
2018-03-01T03:49:49.603Z,0
2018-03-01T03:50:59.294Z,0
2018-03-01T03:52:09.259Z,0
2018-03-01T03:53:19.212Z,0
2018-03-01T03:54:28.905Z,0
2018-03-01T03:55:38.868Z,0
2018-03-01T03:56:48.553Z,0
2018-03-01T03:57:58.252Z,0
2018-03-01T03:59:07.941Z,0
2018-03-01T04:00:18.445Z,0
2018-03-01T04:01:27.874Z,0
2018-03-01T04:02:37.661Z,0
2018-03-01T04:03:47.607Z,0
2018-03-01T04:04:57.559Z,0
2018-03-01T04:06:07.244Z,0
2018-03-01T04:07:16.939Z,0
2018-03-01T04:08:26.629Z,0
2018-03-01T04:09:36.321Z,0
2018-03-01T04:10:46.515Z,0
2018-03-01T04:11:56.456Z,0
2018-03-01T04:13:06.149Z,0
2018-03-01T04:14:16.097Z,0
2018-03-01T04:15:26.033Z,0
2018-03-01T04:16:35.712Z,0
2018-03-01T04:17:45.660Z,0
2018-03-01T04:18:55.621Z,0
2018-03-01T04:20:05.303Z,0
2018-03-01T04:21:15.507Z,0
2018-03-01T04:22:24.947Z,0
2018-03-01T04:23:34.637Z,0
2018-03-01T04:24:44.064Z,0
2018-03-01T04:25:54.021Z,0
2018-03-01T04:27:03.710Z,0
2018-03-01T04:28:13.655Z,0
2018-03-01T04:29:23.348Z,0
2018-03-01T04:30:33.285Z,0
2018-03-01T04:31:42.710Z,0
2018-03-01T04:32:52.714Z,0
2018-03-01T04:34:02.724Z,0
2018-03-01T04:35:12.417Z,0
2018-03-01T04:36:21.854Z,0
2018-03-01T04:37:31.814Z,0
2018-03-01T04:38:41.501Z,0
2018-03-01T04:39:51.182Z,0
2018-03-01T04:41:00.355Z,0
2018-03-01T04:42:09.799Z,0
2018-03-01T04:43:18.975Z,0
2018-03-01T04:44:28.664Z,0
2018-03-01T04:45:38.343Z,0
2018-03-01T04:46:48.292Z,0
2018-03-01T04:47:57.989Z,0
2018-03-01T04:49:07.940Z,0
2018-03-01T04:50:17.897Z,0
2018-03-01T04:51:27.329Z,0
2018-03-01T04:52:37.290Z,0
2018-03-01T04:53:46.979Z,0
2018-03-01T04:54:56.670Z,0
2018-03-01T04:56:06.352Z,0
2018-03-01T04:57:16.302Z,0
2018-03-01T04:58:25.980Z,0
2018-03-01T04:59:35.660Z,0
2018-03-01T05:00:45.596Z,0
2018-03-01T05:01:55.297Z,0
2018-03-01T05:03:05.254Z,0
2018-03-01T05:04:14.947Z,0
2018-03-01T05:05:24.637Z,0
2018-03-01T05:06:34.584Z,0
2018-03-01T05:07:44.522Z,0
2018-03-01T05:08:54.470Z,0
2018-03-01T05:10:04.165Z,0
2018-03-01T05:11:13.857Z,0
2018-03-01T05:12:23.547Z,0
2018-03-01T05:13:32.971Z,0
2018-03-01T05:14:42.661Z,0
2018-03-01T05:15:52.601Z,0
2018-03-01T05:17:02.298Z,0
2018-03-01T05:18:12.305Z,4
2018-03-01T05:19:22.267Z,4
2018-03-01T05:20:31.961Z,0
2018-03-01T05:21:41.905Z,4
2018-03-01T05:22:51.605Z,4
2018-03-01T05:24:01.823Z,8
2018-03-01T05:25:11.517Z,8
2018-03-01T05:26:21.470Z,8
2018-03-01T05:27:31.158Z,8
2018-03-01T05:28:41.116Z,12
2018-03-01T05:29:50.818Z,12
2018-03-01T05:31:00.509Z,16
2018-03-01T05:32:10.196Z,20
2018-03-01T05:33:20.143Z,24
2018-03-01T05:34:29.054Z,28
2018-03-01T05:35:39.010Z,36
2018-03-01T05:36:48.954Z,44
2018-03-01T05:37:58.928Z,52
2018-03-01T05:39:08.883Z,64
2018-03-01T05:40:18.834Z,76
2018-03-01T05:41:28.790Z,88
2018-03-01T05:42:38.734Z,108
2018-03-01T05:43:48.426Z,128
2018-03-01T05:44:58.108Z,148
2018-03-01T05:46:08.071Z,172
2018-03-01T05:47:18.028Z,204
2018-03-01T05:48:27.703Z,236
2018-03-01T05:49:37.652Z,268
2018-03-01T05:50:47.605Z,308
2018-03-01T05:51:57.286Z,348
2018-03-01T05:53:07.248Z,392
2018-03-01T05:54:17.192Z,444
2018-03-01T05:55:27.136Z,496
2018-03-01T05:56:36.851Z,548
2018-03-01T05:57:46.815Z,608
2018-03-01T05:58:56.761Z,672
2018-03-01T06:00:06.711Z,744
2018-03-01T06:01:16.405Z,812
2018-03-01T06:02:26.099Z,872
2018-03-01T06:03:35.799Z,960
2018-03-01T06:04:45.499Z,1040
2018-03-01T06:05:54.956Z,1120
2018-03-01T06:07:04.667Z,1204
2018-03-01T06:08:14.361Z,1292
2018-03-01T06:09:24.081Z,1380
2018-03-01T06:10:33.839Z,1480
2018-03-01T06:11:43.805Z,1564
2018-03-01T06:12:53.758Z,1660
2018-03-01T06:14:03.206Z,1756
2018-03-01T06:15:13.144Z,1852
2018-03-01T06:16:22.828Z,1952
2018-03-01T06:17:32.521Z,2052
2018-03-01T06:18:42.520Z,2160
2018-03-01T06:19:52.476Z,2260
2018-03-01T06:21:02.165Z,2352
2018-03-01T06:22:11.862Z,2456
2018-03-01T06:23:21.302Z,2596
2018-03-01T06:24:31.271Z,2680
2018-03-01T06:25:41.240Z,2800
2018-03-01T06:26:51.172Z,2888
2018-03-01T06:28:01.302Z,2996
2018-03-01T06:29:10.741Z,3100
2018-03-01T06:30:20.435Z,3228
2018-03-01T06:31:30.118Z,3304
2018-03-01T06:32:39.798Z,3400
2018-03-01T06:33:49.746Z,3512
2018-03-01T06:34:59.696Z,3600
2018-03-01T06:36:09.703Z,3780
2018-03-01T06:37:19.399Z,3808
2018-03-01T06:38:29.093Z,3904
2018-03-01T06:39:39.050Z,4004
2018-03-01T06:40:48.751Z,4208
2018-03-01T06:41:58.714Z,4216
2018-03-01T06:43:08.680Z,4332
2018-03-01T06:44:18.624Z,4416
2018-03-01T06:45:28.562Z,4528
2018-03-01T06:46:37.990Z,4592
2018-03-01T06:47:47.681Z,4696
2018-03-01T06:48:57.629Z,4816
2018-03-01T06:50:07.605Z,4932
2018-03-01T06:51:17.546Z,4984
2018-03-01T06:52:27.510Z,5080
2018-03-01T06:53:36.698Z,5180
2018-03-01T06:54:46.399Z,5304
2018-03-01T06:55:56.358Z,5428
2018-03-01T06:57:06.068Z,5644
2018-03-01T06:58:15.497Z,5560
2018-03-01T06:59:25.451Z,5716
2018-03-01T07:00:35.439Z,5796
2018-03-01T07:01:45.136Z,5876
2018-03-01T07:02:54.849Z,6040
2018-03-01T07:04:04.040Z,6264
2018-03-01T07:05:13.990Z,6120
2018-03-01T07:06:23.960Z,6208
2018-03-01T07:07:33.658Z,6380
2018-03-01T07:08:43.620Z,6448
2018-03-01T07:09:53.319Z,6932
2018-03-01T07:11:03.009Z,6648
2018-03-01T07:12:13.026Z,6616
2018-03-01T07:13:22.728Z,6692
2018-03-01T07:14:32.412Z,6988
2018-03-01T07:15:42.098Z,6876
2018-03-01T07:16:51.803Z,6944
2018-03-01T07:18:01.794Z,7044
2018-03-01T07:19:11.507Z,7232
2018-03-01T07:20:20.935Z,7164
2018-03-01T07:21:30.896Z,7580
2018-03-01T07:22:40.074Z,7476
2018-03-01T07:23:49.768Z,8052
2018-03-01T07:24:59.184Z,7660
2018-03-01T07:26:08.889Z,7632
2018-03-01T07:27:18.343Z,7748
2018-03-01T07:28:27.506Z,8172
2018-03-01T07:29:37.196Z,7984
2018-03-01T07:30:46.956Z,8128
2018-03-01T07:31:56.642Z,8104
2018-03-01T07:33:06.982Z,8308
2018-03-01T07:34:16.936Z,8764
2018-03-01T07:35:26.630Z,8592
2018-03-01T07:36:36.350Z,8564
2018-03-01T07:37:46.057Z,9044
2018-03-01T07:38:56.030Z,8656
2018-03-01T07:40:05.229Z,8780
2018-03-01T07:41:14.960Z,9100
2018-03-01T07:42:24.659Z,9248
2018-03-01T07:43:34.083Z,9392
2018-03-01T07:44:43.769Z,9336
2018-03-01T07:45:53.458Z,9144
2018-03-01T07:47:03.422Z,9288
2018-03-01T07:48:13.126Z,10156
2018-03-01T07:49:22.559Z,9488
2018-03-01T07:50:32.518Z,9484
2018-03-01T07:51:41.689Z,9672
2018-03-01T07:52:51.381Z,9712
2018-03-01T07:54:01.085Z,9684
2018-03-01T07:55:11.044Z,9840
2018-03-01T07:56:20.967Z,10060
2018-03-01T07:57:31.041Z,10900
2018-03-01T07:58:41.001Z,10116
2018-03-01T07:59:50.718Z,10156
2018-03-01T08:01:00.440Z,10364
2018-03-01T08:02:10.147Z,11148
2018-03-01T08:03:19.579Z,10704
2018-03-01T08:04:29.075Z,10572
2018-03-01T08:05:39.084Z,10492
2018-03-01T08:06:49.050Z,10728
2018-03-01T08:07:59.035Z,10884
2018-03-01T08:09:08.726Z,10736
2018-03-01T08:10:18.424Z,10808
2018-03-01T08:11:28.110Z,12004
2018-03-01T08:12:38.059Z,10916
2018-03-01T08:13:48.020Z,10984
2018-03-01T08:14:57.731Z,12732
2018-03-01T08:16:07.186Z,15448
2018-03-01T08:17:17.150Z,15360
2018-03-01T08:18:27.071Z,18464
2018-03-01T08:19:36.763Z,19072
2018-03-01T08:20:46.223Z,18432
2018-03-01T08:21:55.946Z,20384
2018-03-01T08:23:05.134Z,13568
2018-03-01T08:24:15.095Z,19168
2018-03-01T08:25:25.159Z,19584
2018-03-01T08:26:35.350Z,20320
2018-03-01T08:27:45.315Z,21472
2018-03-01T08:28:55.267Z,22752
2018-03-01T08:30:05.392Z,23744
2018-03-01T08:31:14.680Z,20608
2018-03-01T08:32:24.654Z,21984
2018-03-01T08:33:34.092Z,22816
2018-03-01T08:34:43.792Z,23968
2018-03-01T08:35:53.767Z,16012
2018-03-01T08:37:03.732Z,23296
2018-03-01T08:38:13.994Z,23648
2018-03-01T08:39:23.699Z,23968
2018-03-01T08:40:33.672Z,25088
2018-03-01T08:41:43.444Z,24992
2018-03-01T08:42:53.591Z,24224
2018-03-01T08:44:03.577Z,24928
2018-03-01T08:45:13.298Z,25504
2018-03-01T08:46:22.997Z,25344
2018-03-01T08:47:32.965Z,25952
2018-03-01T08:48:42.971Z,27200
2018-03-01T08:49:53.018Z,24544
2018-03-01T08:51:02.959Z,26528
2018-03-01T08:52:12.651Z,26368
2018-03-01T08:53:22.668Z,23680
2018-03-01T08:54:32.719Z,24224
2018-03-01T08:55:42.628Z,26464
2018-03-01T08:56:52.370Z,27872
2018-03-01T08:58:01.883Z,28288
2018-03-01T08:59:11.616Z,28960
2018-03-01T09:00:21.054Z,31744
2018-03-01T09:01:30.973Z,31712
2018-03-01T09:02:40.664Z,38144
2018-03-01T09:03:49.857Z,32192
2018-03-01T09:04:59.264Z,32896
2018-03-01T09:06:09.209Z,36288
2018-03-01T09:07:18.898Z,36832
2018-03-01T09:08:28.668Z,39648
2018-03-01T09:09:38.119Z,41600
2018-03-01T09:10:47.831Z,40480
2018-03-01T09:11:57.828Z,42240
2018-03-01T09:13:07.307Z,44704
2018-03-01T09:14:17.038Z,44416
2018-03-01T09:15:26.748Z,27232
2018-03-01T09:16:36.772Z,46336
2018-03-01T09:17:46.478Z,45728
2018-03-01T09:18:56.198Z,48352
2018-03-01T09:20:06.422Z,50336
2018-03-01T09:21:16.142Z,49728
2018-03-01T09:22:26.119Z,50080
2018-03-01T09:23:36.108Z,50432
2018-03-01T09:24:46.186Z,51808
2018-03-01T09:25:56.156Z,54112
2018-03-01T09:27:05.851Z,53632
2018-03-01T09:28:15.821Z,55360
2018-03-01T09:29:25.016Z,52608
2018-03-01T09:30:34.828Z,55776
2018-03-01T09:31:44.533Z,52448
2018-03-01T09:32:54.549Z,52448
2018-03-01T09:34:04.251Z,53664
2018-03-01T09:35:13.974Z,52864
2018-03-01T09:36:23.955Z,53824
2018-03-01T09:37:33.663Z,55040
2018-03-01T09:38:43.681Z,54272
2018-03-01T09:39:53.654Z,57952
2018-03-01T09:41:03.644Z,58848
2018-03-01T09:42:13.365Z,61760
2018-03-01T09:43:23.340Z,62464
2018-03-01T09:44:33.321Z,59264
2018-03-01T09:45:42.765Z,59744
2018-03-01T09:46:52.862Z,62016
2018-03-01T09:48:02.869Z,61600
2018-03-01T09:49:12.856Z,65632
2018-03-01T09:50:22.837Z,65568
2018-03-01T09:51:32.845Z,58496
2018-03-01T09:52:42.858Z,67584
2018-03-01T09:53:52.832Z,68992
2018-03-01T09:55:02.838Z,69120
2018-03-01T09:56:12.849Z,69760
2018-03-01T09:57:22.823Z,69952
2018-03-01T09:58:32.571Z,67936
2018-03-01T09:59:42.282Z,70784
2018-03-01T10:00:52.254Z,69152
2018-03-01T10:02:02.011Z,65824
2018-03-01T10:03:12.130Z,68096
2018-03-01T10:04:21.601Z,64576
2018-03-01T10:05:31.416Z,61984
2018-03-01T10:06:41.125Z,66304
2018-03-01T10:07:51.106Z,69408
2018-03-01T10:09:01.083Z,64864
2018-03-01T10:10:11.063Z,68416
2018-03-01T10:11:21.068Z,69472
2018-03-01T10:12:31.040Z,76768
2018-03-01T10:13:41.083Z,76224
2018-03-01T10:14:50.846Z,74304
2018-03-01T10:16:00.832Z,69984
2018-03-01T10:17:10.558Z,79072
2018-03-01T10:18:20.277Z,74976
2018-03-01T10:19:30.276Z,68160
2018-03-01T10:20:40.018Z,70208
2018-03-01T10:21:49.835Z,75136
2018-03-01T10:22:59.831Z,79136
2018-03-01T10:24:09.294Z,80928
2018-03-01T10:25:19.015Z,81696
2018-03-01T10:26:28.494Z,81856
2018-03-01T10:27:38.218Z,77600
2018-03-01T10:28:47.718Z,75648
2018-03-01T10:29:57.499Z,75488
2018-03-01T10:31:06.952Z,78304
2018-03-01T10:32:16.678Z,79776
2018-03-01T10:33:26.410Z,82240
2018-03-01T10:34:36.122Z,84768
2018-03-01T10:35:45.591Z,84000
2018-03-01T10:36:55.587Z,83040
2018-03-01T10:38:05.303Z,66464
2018-03-01T10:39:15.070Z,88256
2018-03-01T10:40:24.798Z,87456
2018-03-01T10:41:34.528Z,91776
2018-03-01T10:42:44.251Z,92576
2018-03-01T10:43:54.242Z,88224
2018-03-01T10:45:04.342Z,89152
2018-03-01T10:46:14.390Z,88512
2018-03-01T10:47:24.357Z,85472
2018-03-01T10:48:34.084Z,85728
2018-03-01T10:49:44.083Z,87392
2018-03-01T10:50:54.078Z,89472
2018-03-01T10:52:03.813Z,91072
2018-03-01T10:53:13.088Z,89760
2018-03-01T10:54:23.053Z,89344
2018-03-01T10:55:32.571Z,89856
2018-03-01T10:56:42.831Z,93760
2018-03-01T10:57:52.301Z,94368
2018-03-01T10:59:02.064Z,90752
2018-03-01T11:00:12.056Z,91808
2018-03-01T11:01:22.071Z,97632
2018-03-01T11:02:32.067Z,96768
2018-03-01T11:03:41.526Z,95968
2018-03-01T11:04:51.275Z,94368
2018-03-01T11:06:00.783Z,91936
2018-03-01T11:07:10.510Z,97472
2018-03-01T11:08:20.243Z,100256
2018-03-01T11:09:29.986Z,96512
2018-03-01T11:10:40.015Z,96576
2018-03-01T11:11:50.080Z,98496
2018-03-01T11:12:59.556Z,104192
2018-03-01T11:14:09.286Z,99616
2018-03-01T11:15:19.288Z,103552
2018-03-01T11:16:29.081Z,98560
2018-03-01T11:17:38.589Z,94368
2018-03-01T11:18:48.080Z,91008
2018-03-01T11:19:57.050Z,100992
2018-03-01T11:21:06.758Z,105504
2018-03-01T11:22:16.459Z,100416
2018-03-01T11:23:26.517Z,99520
2018-03-01T11:24:36.497Z,98944
2018-03-01T11:25:46.459Z,103904
2018-03-01T11:26:56.435Z,100704
2018-03-01T11:28:06.410Z,97120
2018-03-01T11:29:16.505Z,96896
2018-03-01T11:30:26.276Z,96864
2018-03-01T11:31:35.722Z,98176
2018-03-01T11:32:45.699Z,104992
2018-03-01T11:33:55.419Z,95296
2018-03-01T11:35:05.562Z,100064
2018-03-01T11:36:15.289Z,94496
2018-03-01T11:37:24.783Z,96896
2018-03-01T11:38:34.799Z,97248
2018-03-01T11:39:44.790Z,92096
2018-03-01T11:40:54.777Z,96704
2018-03-01T11:42:04.848Z,100128
2018-03-01T11:43:15.142Z,109152
2018-03-01T11:44:24.849Z,100448
2018-03-01T11:45:34.903Z,107264
2018-03-01T11:46:44.406Z,105248
2018-03-01T11:47:54.402Z,102688
2018-03-01T11:49:03.851Z,106464
2018-03-01T11:50:13.583Z,103584
2018-03-01T11:51:23.314Z,99168
2018-03-01T11:52:33.014Z,97984
2018-03-01T11:53:42.745Z,102016
2018-03-01T11:54:52.476Z,97504
2018-03-01T11:56:02.188Z,98976
2018-03-01T11:57:12.182Z,100224
2018-03-01T11:58:22.156Z,103776
2018-03-01T11:59:32.130Z,101664
2018-03-01T12:00:42.113Z,104416
2018-03-01T12:01:52.079Z,107200
2018-03-01T12:03:02.055Z,104224
2018-03-01T12:04:12.191Z,106848
2018-03-01T12:05:21.909Z,112448
2018-03-01T12:06:31.369Z,106656
2018-03-01T12:07:41.342Z,107680
2018-03-01T12:08:51.062Z,108224
2018-03-01T12:10:01.055Z,101472
2018-03-01T12:11:10.774Z,101248
2018-03-01T12:12:20.765Z,108352
2018-03-01T12:13:30.229Z,104032
2018-03-01T12:14:40.212Z,102400
2018-03-01T12:15:50.183Z,102784
2018-03-01T12:17:00.178Z,86528
2018-03-01T12:18:09.930Z,78080
2018-03-01T12:19:19.639Z,86944
2018-03-01T12:20:29.696Z,99808
2018-03-01T12:21:39.473Z,97024
2018-03-01T12:22:49.458Z,96768
2018-03-01T12:23:59.446Z,101792
2018-03-01T12:25:09.419Z,107584
2018-03-01T12:26:19.163Z,109728
2018-03-01T12:27:29.153Z,109376
2018-03-01T12:28:39.233Z,106848
2018-03-01T12:29:48.953Z,106656
2018-03-01T12:30:58.933Z,103936
2018-03-01T12:32:08.912Z,107584
2018-03-01T12:33:18.612Z,106720
2018-03-01T12:34:28.588Z,105088
2018-03-01T12:35:38.605Z,107008
2018-03-01T12:36:48.573Z,101984
2018-03-01T12:37:58.563Z,101440
2018-03-01T12:39:08.554Z,112256
2018-03-01T12:40:18.595Z,108224
2018-03-01T12:41:28.574Z,102304
2018-03-01T12:42:38.551Z,95616
2018-03-01T12:43:48.525Z,114848
2018-03-01T12:44:58.499Z,110464
2018-03-01T12:46:08.706Z,110368
2018-03-01T12:47:18.547Z,107808
2018-03-01T12:48:28.612Z,108128
2018-03-01T12:49:38.596Z,105824
2018-03-01T12:50:48.593Z,103808
2018-03-01T12:51:58.567Z,106592
2018-03-01T12:53:08.531Z,105696
2018-03-01T12:54:18.519Z,102912
2018-03-01T12:55:28.223Z,95840
2018-03-01T12:56:38.207Z,94272
2018-03-01T12:57:47.943Z,98752
2018-03-01T12:58:57.921Z,103776
2018-03-01T13:00:07.894Z,108032
2018-03-01T13:01:17.881Z,95488
2018-03-01T13:02:27.863Z,82720
2018-03-01T13:03:37.574Z,103424
2018-03-01T13:04:47.278Z,104000
2018-03-01T13:05:57.254Z,101664
2018-03-01T13:07:07.228Z,99360
2018-03-01T13:08:17.243Z,103936
2018-03-01T13:09:27.220Z,103936
2018-03-01T13:10:36.919Z,97472
2018-03-01T13:11:46.891Z,101120
2018-03-01T13:12:56.614Z,103264
2018-03-01T13:14:06.337Z,100192
2018-03-01T13:15:16.450Z,98592
2018-03-01T13:16:26.423Z,102720
2018-03-01T13:17:36.389Z,103264
2018-03-01T13:18:46.412Z,104832
2018-03-01T13:19:56.126Z,97248
2018-03-01T13:21:05.856Z,96416
2018-03-01T13:22:15.591Z,100256
2018-03-01T13:23:25.306Z,100448
2018-03-01T13:24:35.014Z,96320
2018-03-01T13:25:44.713Z,96096
2018-03-01T13:26:54.710Z,97984
2018-03-01T13:28:04.418Z,94624
2018-03-01T13:29:14.389Z,88384
2018-03-01T13:30:24.364Z,91072
2018-03-01T13:31:34.103Z,95488
2018-03-01T13:32:43.584Z,101600
2018-03-01T13:33:53.565Z,100160
2018-03-01T13:35:03.027Z,91488
2018-03-01T13:36:12.745Z,97984
2018-03-01T13:37:22.728Z,96960
2018-03-01T13:38:32.449Z,94528
2018-03-01T13:39:42.427Z,91328
2018-03-01T13:40:52.419Z,92480
2018-03-01T13:42:02.136Z,90368
2018-03-01T13:43:12.121Z,89056
2018-03-01T13:44:21.857Z,88512
2018-03-01T13:45:31.909Z,91328
2018-03-01T13:46:41.616Z,90752
2018-03-01T13:47:51.087Z,92160
2018-03-01T13:49:01.060Z,88960
2018-03-01T13:50:10.793Z,84160
2018-03-01T13:51:20.242Z,84768
2018-03-01T13:52:30.217Z,85216
2018-03-01T13:53:40.190Z,88832
2018-03-01T13:54:49.907Z,87104
2018-03-01T13:55:59.358Z,87040
2018-03-01T13:57:09.069Z,87488
2018-03-01T13:58:18.816Z,88512
2018-03-01T13:59:28.270Z,91008
2018-03-01T14:00:38.241Z,89120
2018-03-01T14:01:47.948Z,84896
2018-03-01T14:02:57.146Z,80704
2018-03-01T14:04:06.859Z,81312
2018-03-01T14:05:16.347Z,81728
2018-03-01T14:06:26.069Z,80256
2018-03-01T14:07:36.110Z,82656
2018-03-01T14:08:46.099Z,90528
2018-03-01T14:09:55.894Z,65312
2018-03-01T14:11:05.641Z,45376
2018-03-01T14:12:15.094Z,70112
2018-03-01T14:13:25.073Z,79520
2018-03-01T14:14:34.774Z,80672
2018-03-01T14:15:44.775Z,82272
2018-03-01T14:16:54.754Z,84832
2018-03-01T14:18:04.481Z,84032
2018-03-01T14:19:14.201Z,81056
2018-03-01T14:20:23.906Z,80096
2018-03-01T14:21:33.362Z,79584
2018-03-01T14:22:43.328Z,80928
2018-03-01T14:23:53.309Z,80480
2018-03-01T14:25:02.773Z,79872
2018-03-01T14:26:12.508Z,80544
2018-03-01T14:27:22.310Z,77408
2018-03-01T14:28:32.285Z,72960
2018-03-01T14:29:41.982Z,75040
2018-03-01T14:30:51.841Z,71936
2018-03-01T14:32:01.819Z,68576
2018-03-01T14:33:11.530Z,71744
2018-03-01T14:34:21.243Z,67008
2018-03-01T14:35:31.224Z,65408
2018-03-01T14:36:41.239Z,68768
2018-03-01T14:37:51.055Z,69696
2018-03-01T14:39:00.261Z,67808
2018-03-01T14:40:09.982Z,70080
2018-03-01T14:41:19.440Z,68544
2018-03-01T14:42:28.904Z,63296
2018-03-01T14:43:38.631Z,62976
2018-03-01T14:44:48.617Z,66144
2018-03-01T14:45:58.589Z,65056
2018-03-01T14:47:08.559Z,65120
2018-03-01T14:48:18.010Z,66784
2018-03-01T14:49:27.716Z,64640
2018-03-01T14:50:37.681Z,60800
2018-03-01T14:51:47.406Z,60576
2018-03-01T14:52:56.845Z,58592
2018-03-01T14:54:06.298Z,56640
2018-03-01T14:55:16.035Z,56992
2018-03-01T14:56:26.014Z,61888
2018-03-01T14:57:35.986Z,55648
2018-03-01T14:58:45.805Z,56448
2018-03-01T14:59:55.000Z,58048
2018-03-01T15:01:04.444Z,57248
2018-03-01T15:02:14.422Z,55136
2018-03-01T15:03:24.419Z,56288
2018-03-01T15:04:34.396Z,56864
2018-03-01T15:05:44.366Z,50496
2018-03-01T15:06:54.080Z,49952
2018-03-01T15:08:04.064Z,50048
2018-03-01T15:09:14.034Z,55584
2018-03-01T15:10:23.781Z,52128
2018-03-01T15:11:33.900Z,51520
2018-03-01T15:12:43.088Z,47296
2018-03-01T15:13:52.835Z,42144
2018-03-01T15:15:02.281Z,44064
2018-03-01T15:16:12.278Z,51488
2018-03-01T15:17:22.263Z,43776
2018-03-01T15:18:31.982Z,40032
2018-03-01T15:19:41.946Z,42432
2018-03-01T15:20:51.649Z,32128
2018-03-01T15:22:01.364Z,34432
2018-03-01T15:23:11.341Z,37120
2018-03-01T15:24:21.304Z,32928
2018-03-01T15:25:31.280Z,35936
2018-03-01T15:26:40.730Z,34208
2018-03-01T15:27:50.471Z,36128
2018-03-01T15:29:00.181Z,33920
2018-03-01T15:30:09.894Z,34368
2018-03-01T15:31:19.674Z,31040
2018-03-01T15:32:29.650Z,32448
2018-03-01T15:33:39.098Z,32416
2018-03-01T15:34:49.088Z,32320
2018-03-01T15:35:58.578Z,32256
2018-03-01T15:37:08.306Z,31232
2018-03-01T15:38:17.752Z,30304
2018-03-01T15:39:27.721Z,28832
2018-03-01T15:40:37.735Z,27104
2018-03-01T15:41:47.714Z,25760
2018-03-01T15:42:57.156Z,25120
2018-03-01T15:44:07.189Z,22848